Wind From: 11-12-2017 07:30 Until: 12-12-2017 06:00 warning for: Wind Level: Orange info button

Power and phone distribution networks may be disrupted for relatively long periods., Roofs and chimneys can be damaged. , Tree branches may break. , Vehicles can be deported. , Traffic may be disrupted, particularly on secondary roads in forest areas. Limit your trips. , Limit your speed in highway driving, especially if you drive a vehicle or hitch sensitive to wind. , Do not go for walks in forests or along the coast., In town, be vigilant against possible falling objects., Do not work on roofs and do not touch any electrical line fallen on the ground., Store or secure sensitive objects to wind or likely to be damaged., Always install power generators outside buildings. 


Meteo18 Weather Cam more information Meteo18 Weather Cam


Thunder radar more information blitzortung!


Rain radar more information rain snow radar


Visit our other weather sites:

Template documentation
and downloads

And another site



Weather Underground History page Text

Daily Summary for March 24, 2017 Units:  Metric    English   Both
« Previous Day
Next Day »
Daily Weekly Monthly Yearly Custom
  High: Low: Average:
Temperature: 12.2 °C 3.6 °C 8 °C
Dew Point: 9.0 °C 2.9 °C 6.4 °C
Humidity: 97 % 78 % 90 %
Wind Speed: 25.7 km/h 0.0 km/h 7.4 km/h
Wind Gust: 30.6 km/h - -
Wind:- - ENE
Pressure: 1023.2 hPa 1017.5 hPa -
Precipitation: 1.5 mm    
Historical Graphs
 
 
Tabular Data for March 24, 2017
Time Temperature Dew Point Pressure Wind Wind Speed Wind Gust Humidity Rainfall Rate (Hourly)
00:02 5.1 °C 4.2 °C 1017.5 hPa Calm   3.2 km/h 94 % 0.0 mm
00:07 5.2 °C 4.3 °C 1017.5 hPa NE 1.6 km/h 1.6 km/h 94 % 0.0 mm
00:12 5.2 °C 4.3 °C 1017.8 hPa ENE 1.6 km/h 1.6 km/h 94 % 0.0 mm
00:17 5.2 °C 4.3 °C 1017.8 hPa ENE 1.6 km/h 3.2 km/h 94 % 0.0 mm
00:22 5.1 °C 4.1 °C 1018.2 hPa Calm   3.2 km/h 93 % 0.0 mm
00:32 4.7 °C 3.8 °C 1018.2 hPa Calm   3.2 km/h 94 % 0.0 mm
00:37 4.5 °C 3.5 °C 1018.5 hPa Calm   3.2 km/h 93 % 0.0 mm
00:42 4.3 °C 3.4 °C 1018.5 hPa Calm   1.6 km/h 94 % 0.0 mm
00:52 4.4 °C 3.7 °C 1018.5 hPa ENE 1.6 km/h 1.6 km/h 95 % 0.0 mm
00:57 4.5 °C 3.8 °C 1018.5 hPa Calm   1.6 km/h 95 % 0.0 mm
01:02 4.4 °C 3.7 °C 1018.8 hPa Calm   1.6 km/h 95 % 0.0 mm
01:12 4.3 °C 3.6 °C 1018.8 hPa Calm   1.6 km/h 95 % 0.0 mm
01:17 4.1 °C 3.4 °C 1018.8 hPa Calm   1.6 km/h 95 % 0.0 mm
01:22 4.1 °C 3.4 °C 1018.8 hPa North 1.6 km/h 1.6 km/h 95 % 0.0 mm
01:32 3.8 °C 3.1 °C 1018.8 hPa North 1.6 km/h 1.6 km/h 95 % 0.0 mm
01:42 3.6 °C 2.9 °C 1018.8 hPa NNW 1.6 km/h 3.2 km/h 95 % 0.0 mm
01:47 3.6 °C 2.9 °C 1018.8 hPa Calm   3.2 km/h 95 % 0.0 mm
01:52 3.6 °C 3.0 °C 1019.2 hPa North 1.6 km/h 3.2 km/h 96 % 0.0 mm
01:57 3.6 °C 3.0 °C 1019.2 hPa Calm   3.2 km/h 96 % 0.0 mm
02:02 3.7 °C 3.1 °C 1018.8 hPa NNE 3.2 km/h 3.2 km/h 96 % 0.0 mm
02:12 3.9 °C 3.3 °C 1018.8 hPa Calm   4.8 km/h 96 % 0.0 mm
02:17 3.9 °C 3.3 °C 1018.8 hPa Calm   4.8 km/h 96 % 0.0 mm
02:22 3.7 °C 3.1 °C 1018.8 hPa Calm   4.8 km/h 96 % 0.0 mm
02:27 3.8 °C 3.2 °C 1018.8 hPa Calm     96 % 0.0 mm
02:32 4.0 °C 3.4 °C 1018.8 hPa Calm     96 % 0.0 mm
02:42 3.8 °C 3.2 °C 1018.8 hPa Calm     96 % 0.0 mm
02:47 3.8 °C 3.2 °C 1018.8 hPa Calm   1.6 km/h 96 % 0.0 mm
02:52 3.7 °C 3.1 °C 1018.8 hPa Calm   1.6 km/h 96 % 0.0 mm
02:57 3.9 °C 3.3 °C 1018.8 hPa NNE 3.2 km/h 3.2 km/h 96 % 0.0 mm
03:02 3.8 °C 3.2 °C 1018.8 hPa North 1.6 km/h 3.2 km/h 96 % 0.0 mm
03:12 3.8 °C 3.2 °C 1018.8 hPa Calm   6.4 km/h 96 % 0.0 mm
03:17 3.8 °C 3.2 °C 1018.8 hPa Calm   3.2 km/h 96 % 0.0 mm
03:22 3.9 °C 3.5 °C 1018.8 hPa Calm   3.2 km/h 97 % 0.0 mm
03:32 3.9 °C 3.5 °C 1018.8 hPa Calm     97 % 0.0 mm
03:42 3.8 °C 3.4 °C 1018.8 hPa Calm     97 % 0.0 mm
03:47 3.7 °C 3.1 °C 1018.8 hPa Calm     96 % 0.0 mm
03:52 3.7 °C 3.1 °C 1019.2 hPa Calm     96 % 0.0 mm
04:02 3.7 °C 3.3 °C 1018.8 hPa North 1.6 km/h   97 % 0.0 mm
04:07 3.8 °C 3.4 °C 1018.8 hPa North 1.6 km/h 3.2 km/h 97 % 0.0 mm
04:12 3.8 °C 3.4 °C 1018.8 hPa Calm   3.2 km/h 97 % 0.0 mm
04:17 3.8 °C 3.4 °C 1019.2 hPa Calm   3.2 km/h 97 % 0.0 mm
04:22 3.9 °C 3.5 °C 1019.2 hPa Calm   3.2 km/h 97 % 0.0 mm
04:27 4.0 °C 3.6 °C 1019.2 hPa NNW 3.2 km/h 3.2 km/h 97 % 0.0 mm
04:32 4.1 °C 3.7 °C 1018.8 hPa NNW 1.6 km/h 1.6 km/h 97 % 0.0 mm
04:37 4.1 °C 3.7 °C 1018.8 hPa NNW 1.6 km/h 8.0 km/h 97 % 0.0 mm
04:42 4.1 °C 3.7 °C 1018.8 hPa NW 1.6 km/h 8.0 km/h 97 % 0.0 mm
04:47 4.2 °C 3.8 °C 1019.2 hPa NNW 3.2 km/h 8.0 km/h 97 % 0.0 mm
04:52 4.2 °C 3.8 °C 1019.2 hPa Calm   8.0 km/h 97 % 0.0 mm
04:57 4.3 °C 3.9 °C 1019.2 hPa NNE 3.2 km/h 4.8 km/h 97 % 0.0 mm
05:02 4.3 °C 3.9 °C 1018.8 hPa North 1.6 km/h 4.8 km/h 97 % 0.0 mm
05:12 4.4 °C 3.8 °C 1019.5 hPa Calm   4.8 km/h 96 % 0.0 mm
05:17 4.4 °C 3.8 °C 1019.5 hPa Calm   3.2 km/h 96 % 0.0 mm
05:22 4.4 °C 3.8 °C 1019.5 hPa Calm   3.2 km/h 96 % 0.0 mm
05:32 4.3 °C 3.7 °C 1019.5 hPa Calm   1.6 km/h 96 % 0.0 mm
05:37 4.3 °C 3.7 °C 1019.5 hPa NW 1.6 km/h 1.6 km/h 96 % 0.0 mm
05:42 4.4 °C 4.0 °C 1019.9 hPa WNW 1.6 km/h 1.6 km/h 97 % 0.0 mm
05:47 4.4 °C 4.0 °C 1019.9 hPa Calm   3.2 km/h 97 % 0.0 mm
05:52 4.4 °C 3.8 °C 1019.9 hPa Calm   3.2 km/h 96 % 0.0 mm
05:57 4.4 °C 3.8 °C 1019.9 hPa Calm   3.2 km/h 96 % 0.0 mm
06:02 4.4 °C 3.8 °C 1019.9 hPa Calm   3.2 km/h 96 % 0.0 mm
06:12 4.6 °C 4.2 °C 1019.5 hPa NNW 1.6 km/h 1.6 km/h 97 % 0.0 mm
06:17 4.6 °C 4.0 °C 1019.5 hPa Calm   3.2 km/h 96 % 0.3 mm
06:22 4.6 °C 4.0 °C 1019.5 hPa NNW 3.2 km/h 3.2 km/h 96 % 0.3 mm
06:27 4.6 °C 4.0 °C 1019.9 hPa Calm   4.8 km/h 96 % 0.3 mm
06:32 4.7 °C 4.1 °C 1019.9 hPa Calm   4.8 km/h 96 % 0.3 mm
06:37 4.7 °C 4.1 °C 1020.2 hPa North 1.6 km/h 3.2 km/h 96 % 0.3 mm
06:42 4.8 °C 4.2 °C 1020.2 hPa NNE 1.6 km/h 3.2 km/h 96 % 0.3 mm
06:52 4.9 °C 4.3 °C 1020.5 hPa Calm   4.8 km/h 96 % 0.3 mm
06:57 4.8 °C 4.2 °C 1020.5 hPa Calm   4.8 km/h 96 % 0.3 mm
07:02 4.8 °C 4.2 °C 1020.2 hPa Calm   1.6 km/h 96 % 0.5 mm
07:12 4.8 °C 4.2 °C 1020.2 hPa Calm   1.6 km/h 96 % 0.5 mm
07:17 4.9 °C 4.3 °C 1020.2 hPa Calm   1.6 km/h 96 % 0.5 mm
07:22 4.9 °C 4.3 °C 1020.5 hPa Calm   1.6 km/h 96 % 0.5 mm
07:32 5.1 °C 4.5 °C 1020.5 hPa Calm     96 % 0.5 mm
07:37 5.1 °C 4.5 °C 1020.9 hPa Calm     96 % 0.5 mm
07:42 5.2 °C 4.6 °C 1020.9 hPa Calm     96 % 0.5 mm
07:52 5.2 °C 4.6 °C 1020.9 hPa Calm     96 % 0.5 mm
08:02 5.3 °C 4.7 °C 1020.9 hPa Calm   1.6 km/h 96 % 0.5 mm
08:07 5.4 °C 4.8 °C 1020.9 hPa NE 1.6 km/h 6.4 km/h 96 % 0.3 mm
08:17 5.6 °C 5.0 °C 1020.9 hPa NE 4.8 km/h 9.7 km/h 96 % 0.3 mm
08:22 5.6 °C 5.0 °C 1020.9 hPa NNE 8.0 km/h 9.7 km/h 96 % 0.3 mm
08:27 5.7 °C 5.1 °C 1021.2 hPa NNE 6.4 km/h 9.7 km/h 96 % 0.3 mm
08:32 5.8 °C 5.2 °C 1021.2 hPa NNE 3.2 km/h 9.7 km/h 96 % 0.3 mm
08:42 5.9 °C 5.3 °C 1020.9 hPa NNE 8.0 km/h 9.7 km/h 96 % 0.3 mm
08:47 6.1 °C 5.5 °C 1020.9 hPa NNE 4.8 km/h 12.9 km/h 96 % 0.0 mm
08:52 6.1 °C 5.5 °C 1021.2 hPa North 3.2 km/h 12.9 km/h 96 % 0.0 mm
09:02 6.2 °C 5.5 °C 1021.2 hPa NE 4.8 km/h 12.9 km/h 95 % 0.0 mm
09:07 6.3 °C 5.6 °C 1021.2 hPa ESE 3.2 km/h 14.5 km/h 95 % 0.0 mm
09:12 6.3 °C 5.6 °C 1021.6 hPa NNE 9.7 km/h 14.5 km/h 95 % 0.0 mm
09:17 6.3 °C 5.6 °C 1021.2 hPa NE 9.7 km/h 14.5 km/h 95 % 0.0 mm
09:22 6.3 °C 5.6 °C 1021.6 hPa NE 6.4 km/h 14.5 km/h 95 % 0.0 mm
09:32 6.4 °C 5.7 °C 1021.6 hPa NNE 4.8 km/h 14.5 km/h 95 % 0.0 mm
09:42 6.4 °C 5.7 °C 1021.6 hPa Calm   14.5 km/h 95 % 0.0 mm
09:47 6.5 °C 5.8 °C 1021.6 hPa NE 8.0 km/h 14.5 km/h 95 % 0.0 mm
09:52 6.6 °C 5.9 °C 1021.6 hPa North 6.4 km/h 14.5 km/h 95 % 0.0 mm
10:02 6.6 °C 5.9 °C 1021.9 hPa ENE 1.6 km/h 9.7 km/h 95 % 0.0 mm
10:12 6.7 °C 6.0 °C 1022.2 hPa NNE 4.8 km/h 11.3 km/h 95 % 0.0 mm
10:22 6.8 °C 6.1 °C 1022.2 hPa NNE 4.8 km/h 9.7 km/h 95 % 0.0 mm
10:32 6.9 °C 6.3 °C 1022.2 hPa NNE 3.2 km/h 11.3 km/h 96 % 0.5 mm
10:37 6.9 °C 6.3 °C 1022.2 hPa NNE 9.7 km/h 16.1 km/h 96 % 0.5 mm
10:42 6.9 °C 6.3 °C 1022.2 hPa NNE 4.8 km/h 16.1 km/h 96 % 0.5 mm
10:47 7.1 °C 6.5 °C 1022.6 hPa NNE 8.0 km/h 16.1 km/h 96 % 0.5 mm
10:52 7.1 °C 6.5 °C 1022.6 hPa NE 6.4 km/h 16.1 km/h 96 % 0.5 mm
11:02 7.2 °C 6.6 °C 1022.2 hPa NE 8.0 km/h 14.5 km/h 96 % 0.8 mm
11:07 7.3 °C 6.7 °C 1022.2 hPa NNE 14.5 km/h 17.7 km/h 96 % 0.8 mm
11:17 7.5 °C 6.9 °C 1022.6 hPa NNE 9.7 km/h 16.1 km/h 96 % 0.5 mm
11:22 7.6 °C 7.0 °C 1022.6 hPa NE 4.8 km/h 16.1 km/h 96 % 0.5 mm
11:27 7.7 °C 7.1 °C 1022.6 hPa NNE 25.7 km/h 25.7 km/h 96 % 0.5 mm
11:37 7.9 °C 7.3 °C 1022.2 hPa NNE 6.4 km/h 25.7 km/h 96 % 0.3 mm
11:42 8.0 °C 7.2 °C 1022.2 hPa NE 11.3 km/h 25.7 km/h 95 % 0.3 mm
11:47 8.1 °C 7.3 °C 1022.2 hPa NE 11.3 km/h 19.3 km/h 95 % 0.3 mm
11:52 8.2 °C 7.4 °C 1022.2 hPa NNE 12.9 km/h 19.3 km/h 95 % 0.3 mm
12:02 8.4 °C 7.5 °C 1021.9 hPa NE 9.7 km/h 22.5 km/h 94 % 0.0 mm
12:12 8.9 °C 8.0 °C 1021.9 hPa NNE 17.7 km/h 24.1 km/h 94 % 0.0 mm
12:17 9.1 °C 8.0 °C 1022.2 hPa ENE 12.9 km/h 25.7 km/h 93 % 0.0 mm
12:22 9.4 °C 8.3 °C 1022.2 hPa NE 14.5 km/h 25.7 km/h 93 % 0.0 mm
12:32 9.8 °C 8.4 °C 1022.2 hPa NE 8.0 km/h 22.5 km/h 91 % 0.0 mm
12:37 9.9 °C 8.3 °C 1022.2 hPa NNE 6.4 km/h 25.7 km/h 90 % 0.0 mm
12:42 10.1 °C 8.4 °C 1022.6 hPa ENE 12.9 km/h 25.7 km/h 89 % 0.0 mm
12:47 10.1 °C 8.2 °C 1022.6 hPa NE 9.7 km/h 25.7 km/h 88 % 0.0 mm
12:52 10.3 °C 8.6 °C 1022.6 hPa NNE 4.8 km/h 25.7 km/h 89 % 0.0 mm
13:02 10.7 °C 8.6 °C 1022.6 hPa NNE 14.5 km/h 24.1 km/h 87 % 0.0 mm
13:12 10.6 °C 8.4 °C 1022.6 hPa NE 19.3 km/h 19.3 km/h 86 % 0.0 mm
13:17 10.6 °C 8.2 °C 1022.9 hPa NNE 11.3 km/h 24.1 km/h 85 % 0.0 mm
13:22 10.7 °C 8.3 °C 1022.6 hPa NE 20.9 km/h 24.1 km/h 85 % 0.0 mm
13:32 10.9 °C 8.3 °C 1022.6 hPa NE 4.8 km/h 29.0 km/h 84 % 0.0 mm
13:37 11.0 °C 8.0 °C 1022.2 hPa NE 12.9 km/h 29.0 km/h 82 % 0.0 mm
13:42 11.2 °C 8.4 °C 1022.2 hPa NNE 12.9 km/h 29.0 km/h 83 % 0.0 mm
13:47 11.3 °C 8.5 °C 1022.2 hPa NE 12.9 km/h 29.0 km/h 83 % 0.0 mm
13:52 11.4 °C 8.4 °C 1022.2 hPa NE 9.7 km/h 29.0 km/h 82 % 0.0 mm
13:57 11.5 °C 8.4 °C 1022.2 hPa NE 19.3 km/h 24.1 km/h 81 % 0.0 mm
14:02 11.6 °C 8.3 °C 1022.2 hPa NE 9.7 km/h 24.1 km/h 80 % 0.0 mm
14:12 11.7 °C 8.2 °C 1022.2 hPa NNE 25.7 km/h 25.7 km/h 79 % 0.0 mm
14:17 11.6 °C 8.1 °C 1022.2 hPa North 8.0 km/h 30.6 km/h 79 % 0.0 mm
14:22 11.6 °C 8.1 °C 1022.2 hPa NNE 8.0 km/h 30.6 km/h 79 % 0.0 mm
14:32 11.7 °C 8.5 °C 1021.9 hPa NE 4.8 km/h 30.6 km/h 81 % 0.0 mm
14:37 11.8 °C 8.5 °C 1021.9 hPa NNE 11.3 km/h 22.5 km/h 80 % 0.0 mm
14:42 11.9 °C 8.4 °C 1021.9 hPa NE 12.9 km/h 22.5 km/h 79 % 0.0 mm
14:47 11.9 °C 8.2 °C 1021.9 hPa ENE 20.9 km/h 22.5 km/h 78 % 0.0 mm
14:52 11.9 °C 8.2 °C 1021.9 hPa North 11.3 km/h 22.5 km/h 78 % 0.0 mm
14:57 12.0 °C 8.5 °C 1021.9 hPa ESE 8.0 km/h 24.1 km/h 79 % 0.0 mm
15:02 11.9 °C 8.2 °C 1021.9 hPa NE 8.0 km/h 24.1 km/h 78 % 0.0 mm
15:12 11.9 °C 8.6 °C 1021.6 hPa NE 12.9 km/h 25.7 km/h 80 % 0.0 mm
15:17 12.0 °C 8.5 °C 1021.6 hPa NE 16.1 km/h 25.7 km/h 79 % 0.0 mm
15:27 12.1 °C 8.4 °C 1021.9 hPa NE 16.1 km/h 24.1 km/h 78 % 0.0 mm
15:32 12.1 °C 8.6 °C 1021.9 hPa NNE 20.9 km/h 24.1 km/h 79 % 0.0 mm
15:37 12.1 °C 8.6 °C 1021.9 hPa NNE 12.9 km/h 27.4 km/h 79 % 0.0 mm
15:42 12.1 °C 8.8 °C 1021.9 hPa NE 17.7 km/h 27.4 km/h 80 % 0.0 mm
15:47 12.1 °C 8.8 °C 1021.9 hPa NNE 16.1 km/h 29.0 km/h 80 % 0.0 mm
15:52 12.2 °C 8.7 °C 1021.9 hPa North 22.5 km/h 29.0 km/h 79 % 0.0 mm
15:57 12.1 °C 8.8 °C 1021.9 hPa East 16.1 km/h 25.7 km/h 80 % 0.0 mm
16:02 12.0 °C 8.5 °C 1021.9 hPa ENE 14.5 km/h 25.7 km/h 79 % 0.0 mm
16:12 11.9 °C 8.6 °C 1021.9 hPa NE 24.1 km/h 25.7 km/h 80 % 0.0 mm
16:17 11.8 °C 8.5 °C 1021.6 hPa NNE 16.1 km/h 30.6 km/h 80 % 0.0 mm
16:22 11.8 °C 8.5 °C 1021.6 hPa NNW 9.7 km/h 30.6 km/h 80 % 0.0 mm
16:32 11.7 °C 8.5 °C 1021.6 hPa NE 9.7 km/h 30.6 km/h 81 % 0.0 mm
16:37 11.7 °C 8.5 °C 1021.9 hPa NE 11.3 km/h 30.6 km/h 81 % 0.0 mm
16:42 11.7 °C 8.5 °C 1021.6 hPa NNE 19.3 km/h 30.6 km/h 81 % 0.0 mm
16:52 11.6 °C 8.6 °C 1021.9 hPa NNE 12.9 km/h 29.0 km/h 82 % 0.0 mm
16:57 11.5 °C 8.5 °C 1021.9 hPa ENE 19.3 km/h 24.1 km/h 82 % 0.0 mm
17:02 11.5 °C 8.5 °C 1021.9 hPa NNE 12.9 km/h 24.1 km/h 82 % 0.0 mm
17:12 11.4 °C 8.6 °C 1022.2 hPa ENE 12.9 km/h 27.4 km/h 83 % 0.0 mm
17:17 11.4 °C 8.6 °C 1022.2 hPa NNE 9.7 km/h 24.1 km/h 83 % 0.0 mm
17:22 11.4 °C 8.6 °C 1022.2 hPa ENE 3.2 km/h 24.1 km/h 83 % 0.0 mm
17:27 11.4 °C 8.8 °C 1022.2 hPa North 14.5 km/h 24.1 km/h 84 % 0.0 mm
17:32 11.4 °C 8.8 °C 1022.2 hPa NE 6.4 km/h 24.1 km/h 84 % 0.0 mm
17:42 11.4 °C 8.8 °C 1022.2 hPa North 12.9 km/h 20.9 km/h 84 % 0.0 mm
17:52 11.5 °C 8.9 °C 1022.2 hPa NNE 9.7 km/h 17.7 km/h 84 % 0.0 mm
17:57 11.4 °C 8.8 °C 1022.2 hPa NNE 9.7 km/h 22.5 km/h 84 % 0.0 mm
18:02 11.4 °C 8.8 °C 1022.2 hPa NNE 4.8 km/h 22.5 km/h 84 % 0.0 mm
18:07 11.4 °C 8.8 °C 1022.6 hPa NE 9.7 km/h 19.3 km/h 84 % 0.0 mm
18:12 11.4 °C 9.0 °C 1022.6 hPa North 4.8 km/h 19.3 km/h 85 % 0.0 mm
18:17 11.3 °C 8.9 °C 1022.6 hPa NE 9.7 km/h 19.3 km/h 85 % 0.0 mm
18:22 11.3 °C 8.9 °C 1022.6 hPa NNE 12.9 km/h 17.7 km/h 85 % 0.0 mm
18:32 11.2 °C 8.9 °C 1022.6 hPa NE 4.8 km/h 14.5 km/h 86 % 0.0 mm
18:42 11.2 °C 8.9 °C 1022.6 hPa NNE 8.0 km/h 14.5 km/h 86 % 0.0 mm
18:47 11.2 °C 8.9 °C 1022.9 hPa NE 3.2 km/h 14.5 km/h 86 % 0.0 mm
18:52 11.1 °C 8.8 °C 1022.9 hPa NE 8.0 km/h 14.5 km/h 86 % 0.0 mm
18:57 11.1 °C 8.8 °C 1022.6 hPa NE 8.0 km/h 14.5 km/h 86 % 0.0 mm
19:02 11.1 °C 8.8 °C 1022.2 hPa NNW 9.7 km/h 14.5 km/h 86 % 0.0 mm
19:12 10.9 °C 8.6 °C 1021.9 hPa NE 19.3 km/h 19.3 km/h 86 % 0.0 mm
19:17 10.9 °C 8.6 °C 1021.9 hPa NNW 6.4 km/h 17.7 km/h 86 % 0.0 mm
19:22 10.9 °C 8.6 °C 1021.9 hPa NE 16.1 km/h 19.3 km/h 86 % 0.0 mm
19:32 10.8 °C 8.7 °C 1021.9 hPa NE 12.9 km/h 24.1 km/h 87 % 0.0 mm
19:37 10.7 °C 8.6 °C 1021.9 hPa NNE 9.7 km/h 27.4 km/h 87 % 0.0 mm
19:42 10.7 °C 8.6 °C 1021.9 hPa ENE 9.7 km/h 27.4 km/h 87 % 0.0 mm
19:47 10.6 °C 8.5 °C 1021.6 hPa NNE 16.1 km/h 25.7 km/h 87 % 0.0 mm
19:52 10.7 °C 8.6 °C 1021.9 hPa NNE 9.7 km/h 27.4 km/h 87 % 0.0 mm
19:57 10.7 °C 8.6 °C 1021.9 hPa NE 12.9 km/h 27.4 km/h 87 % 0.0 mm
20:07 10.8 °C 8.7 °C 1022.6 hPa NNE 4.8 km/h 29.0 km/h 87 % 0.0 mm
20:12 10.7 °C 8.6 °C 1022.6 hPa NNE 8.0 km/h 29.0 km/h 87 % 0.0 mm
20:17 10.7 °C 8.8 °C 1022.6 hPa NNE 8.0 km/h 24.1 km/h 88 % 0.0 mm
20:22 10.7 °C 8.8 °C 1022.6 hPa NNE 11.3 km/h 24.1 km/h 88 % 0.0 mm
20:27 10.6 °C 8.7 °C 1022.9 hPa NNW 9.7 km/h 17.7 km/h 88 % 0.0 mm
20:37 10.6 °C 8.7 °C 1022.9 hPa NE 8.0 km/h 17.7 km/h 88 % 0.0 mm
20:42 10.6 °C 8.7 °C 1022.6 hPa NE 16.1 km/h 17.7 km/h 88 % 0.0 mm
20:47 10.4 °C 8.5 °C 1022.6 hPa NE 16.1 km/h 24.1 km/h 88 % 0.0 mm
20:52 10.4 °C 8.5 °C 1022.9 hPa NNE 4.8 km/h 24.1 km/h 88 % 0.0 mm
20:57 10.4 °C 8.5 °C 1022.6 hPa NE 16.1 km/h 22.5 km/h 88 % 0.0 mm
21:02 10.3 °C 8.4 °C 1022.6 hPa NE 14.5 km/h 22.5 km/h 88 % 0.0 mm
21:12 10.4 °C 8.3 °C 1022.6 hPa NNE 16.1 km/h 22.5 km/h 87 % 0.0 mm
21:17 10.4 °C 8.3 °C 1022.9 hPa NNE 19.3 km/h 30.6 km/h 87 % 0.0 mm
21:22 10.3 °C 8.2 °C 1022.9 hPa NNE 16.1 km/h 30.6 km/h 87 % 0.0 mm
21:32 10.2 °C 8.3 °C 1023.2 hPa NE 9.7 km/h 24.1 km/h 88 % 0.0 mm
21:37 10.2 °C 8.3 °C 1023.2 hPa NE 12.9 km/h 20.9 km/h 88 % 0.0 mm
21:42 10.1 °C 8.2 °C 1023.2 hPa NNE 8.0 km/h 20.9 km/h 88 % 0.0 mm
21:47 10.0 °C 8.1 °C 1023.2 hPa NNE 19.3 km/h 20.9 km/h 88 % 0.0 mm
21:52 10.0 °C 8.1 °C 1023.2 hPa NE 11.3 km/h 20.9 km/h 88 % 0.0 mm
21:57 9.9 °C 8.0 °C 1023.2 hPa NNE 16.1 km/h 24.1 km/h 88 % 0.0 mm
22:02 9.9 °C 8.0 °C 1023.2 hPa NNE 8.0 km/h 24.1 km/h 88 % 0.0 mm
22:12 9.8 °C 7.9 °C 1022.9 hPa North 11.3 km/h 24.1 km/h 88 % 0.0 mm
22:17 9.7 °C 7.8 °C 1023.2 hPa NNE 9.7 km/h 20.9 km/h 88 % 0.0 mm
22:22 9.7 °C 7.8 °C 1023.2 hPa NNE 14.5 km/h 20.9 km/h 88 % 0.0 mm
22:32 9.6 °C 7.5 °C 1023.2 hPa NNE 11.3 km/h 22.5 km/h 87 % 0.0 mm
22:37 9.6 °C 7.7 °C 1023.2 hPa NNE 16.1 km/h 20.9 km/h 88 % 0.0 mm
22:42 9.6 °C 7.5 °C 1023.2 hPa NE 11.3 km/h 20.9 km/h 87 % 0.0 mm
22:47 9.6 °C 7.5 °C 1023.2 hPa NE 12.9 km/h 24.1 km/h 87 % 0.0 mm
22:52 9.5 °C 7.6 °C 1022.9 hPa NNE 6.4 km/h 24.1 km/h 88 % 0.0 mm
23:02 9.6 °C 7.7 °C 1022.9 hPa NNE 16.1 km/h 19.3 km/h 88 % 0.0 mm
23:12 9.6 °C 7.7 °C 1022.9 hPa NE 12.9 km/h 17.7 km/h 88 % 0.0 mm
23:17 9.6 °C 7.7 °C 1022.9 hPa NE 14.5 km/h 19.3 km/h 88 % 0.0 mm
23:22 9.6 °C 7.7 °C 1022.6 hPa ENE 9.7 km/h 19.3 km/h 88 % 0.0 mm
23:27 9.6 °C 7.7 °C 1022.6 hPa North 3.2 km/h 20.9 km/h 88 % 0.0 mm
23:32 9.7 °C 7.8 °C 1022.6 hPa North 6.4 km/h 20.9 km/h 88 % 0.0 mm
23:37 9.5 °C 7.6 °C 1022.6 hPa North 9.7 km/h 20.9 km/h 88 % 0.0 mm
23:42 9.5 °C 7.6 °C 1022.6 hPa NNE 11.3 km/h 20.9 km/h 88 % 0.0 mm
23:52 9.4 °C 7.5 °C 1022.6 hPa NNW 6.4 km/h 19.3 km/h 88 % 0.0 mm
23:57 9.3 °C 7.4 °C 1022.6 hPa NNE 14.5 km/h 19.3 km/h 88 % 0.0 mm
Meteo18
Compliments of Weather Underground - 4 mb

Script developed by  Jim McMurry - jmcmurry@mwt.net Adapted for the template by  Wim van der Kuil - Leuven-Template.eu

You find our weather info also at:

European Weather Network

Weather Underground

Equipment we use:

Weather-station
Davis Vue

Weather-program
Meteohub

Weather-server
Raspberry PI 2 B+

Provider
1 and 1

Davis Vue

Meteohub

Raspberry PI 2 B+

1 and 1